createdAt,value
2022-10-16T00:02:44.217Z,60.68
2022-10-16T00:06:47.162Z,60.76
2022-10-16T00:10:47.541Z,61.03
2022-10-16T00:14:48.066Z,61.54
2022-10-16T00:18:48.215Z,60.39
2022-10-16T00:22:51.279Z,60.86
2022-10-16T00:26:54.558Z,60.87
2022-10-16T00:30:55.566Z,60.95
2022-10-16T00:34:56.353Z,61.56
2022-10-16T00:39:02.972Z,61.46
2022-10-16T00:43:03.545Z,60.82
2022-10-16T00:47:03.793Z,60.72
2022-10-16T00:51:04.328Z,60.63
2022-10-16T00:55:09.907Z,61.07
2022-10-16T00:59:18.886Z,61.41
2022-10-16T01:03:32.424Z,61.66
2022-10-16T01:07:47.914Z,61.18
2022-10-16T01:12:05.300Z,61.03
2022-10-16T01:16:16.921Z,61.60
2022-10-16T01:20:30.037Z,61.45
2022-10-16T01:24:43.005Z,61.62
2022-10-16T01:28:53.816Z,61.80
2022-10-16T01:33:01.343Z,61.56
2022-10-16T01:37:09.487Z,61.85
2022-10-16T01:41:16.294Z,62.04
2022-10-16T01:45:23.184Z,62.44
2022-10-16T01:49:26.825Z,62.13
2022-10-16T01:53:29.492Z,62.65
2022-10-16T01:57:32.502Z,62.85
2022-10-16T02:01:40.260Z,63.30
2022-10-16T02:05:49.159Z,63.19
2022-10-16T02:09:49.747Z,61.91
2022-10-16T02:13:57.327Z,62.75
2022-10-16T02:18:00.084Z,62.77
2022-10-16T02:22:07.421Z,62.47
2022-10-16T02:26:12.846Z,62.05
2022-10-16T02:30:19.414Z,61.63
2022-10-16T02:34:26.071Z,62.62
2022-10-16T02:38:31.280Z,62.40
2022-10-16T02:42:38.693Z,61.99
2022-10-16T02:46:38.829Z,61.75
2022-10-16T02:50:41.622Z,61.43
2022-10-16T02:54:41.753Z,61.61
2022-10-16T02:58:41.861Z,60.80
2022-10-16T03:02:42.429Z,60.58
2022-10-16T03:06:45.067Z,61.02
2022-10-16T03:10:45.293Z,61.16
2022-10-16T03:14:45.633Z,61.02
2022-10-16T03:18:46.200Z,60.56
2022-10-16T03:22:48.988Z,60.61
2022-10-16T03:26:52.516Z,60.73
2022-10-16T03:30:52.614Z,60.31
2022-10-16T03:34:54.130Z,60.58
2022-10-16T03:38:56.797Z,60.15
2022-10-16T03:42:58.705Z,60.32
2022-10-16T03:46:58.980Z,60.48
2022-10-16T03:50:59.200Z,60.78
2022-10-16T03:55:01.851Z,61.06
2022-10-16T03:59:01.874Z,61.08
2022-10-16T04:03:01.966Z,60.82
2022-10-16T04:07:02.138Z,60.90
2022-10-16T04:11:05.034Z,61.10
2022-10-16T04:15:05.277Z,59.84
2022-10-16T04:19:05.498Z,59.65
2022-10-16T04:23:06.270Z,60.61
2022-10-16T04:27:09.130Z,60.50
2022-10-16T04:31:10.402Z,60.79
2022-10-16T04:35:12.049Z,60.70
2022-10-16T04:39:13.190Z,61.23
2022-10-16T04:43:15.893Z,60.97
2022-10-16T04:47:16.739Z,60.73
2022-10-16T04:51:17.132Z,61.14
2022-10-16T04:55:17.588Z,61.13
2022-10-16T04:59:21.308Z,61.22
2022-10-16T05:03:21.539Z,60.60
2022-10-16T05:07:21.970Z,60.16
2022-10-16T05:11:22.154Z,59.85
2022-10-16T05:15:26.024Z,59.07
2022-10-16T05:19:27.798Z,60.25
2022-10-16T05:23:28.699Z,59.43
2022-10-16T05:27:29.145Z,60.12
2022-10-16T05:31:32.105Z,59.89
2022-10-16T05:35:32.285Z,60.43
2022-10-16T05:39:32.342Z,60.50
2022-10-16T05:43:33.517Z,60.92
2022-10-16T05:47:36.409Z,60.72
2022-10-16T05:51:36.543Z,61.58
2022-10-16T05:55:36.590Z,61.45
2022-10-16T05:59:36.687Z,61.10
2022-10-16T06:03:39.419Z,60.75
2022-10-16T06:07:40.718Z,60.81
2022-10-16T06:11:40.968Z,59.89
2022-10-16T06:15:42.787Z,60.25
2022-10-16T06:19:45.522Z,60.23
2022-10-16T06:23:46.999Z,59.77
2022-10-16T06:27:47.344Z,60.54
2022-10-16T06:31:47.648Z,60.52
2022-10-16T06:35:50.286Z,59.70
2022-10-16T06:39:50.345Z,59.84
2022-10-16T06:43:51.381Z,59.67
2022-10-16T06:47:51.480Z,59.77
2022-10-16T06:51:54.245Z,58.67
2022-10-16T06:55:54.698Z,57.79
2022-10-16T06:59:55.506Z,57.96
2022-10-16T07:03:56.323Z,56.60
2022-10-16T07:07:59.109Z,55.81
2022-10-16T07:11:59.310Z,55.87
2022-10-16T07:15:59.458Z,55.98
2022-10-16T07:19:59.574Z,55.16
2022-10-16T07:24:04.738Z,53.91
2022-10-16T07:28:04.935Z,53.06
2022-10-16T07:32:06.412Z,53.61
2022-10-16T07:36:07.450Z,52.61
2022-10-16T07:40:12.902Z,51.95
2022-10-16T07:44:13.035Z,52.87
2022-10-16T07:48:13.035Z,53.84
2022-10-16T07:52:13.054Z,53.33
2022-10-16T07:56:16.811Z,52.51
2022-10-16T08:00:17.887Z,52.98
2022-10-16T08:04:17.959Z,53.56
2022-10-16T08:08:19.656Z,53.31
2022-10-16T08:12:22.394Z,51.65
2022-10-16T08:16:22.544Z,51.43
2022-10-16T08:20:22.675Z,50.87
2022-10-16T08:24:23.072Z,52.25
2022-10-16T08:28:27.120Z,53.48
2022-10-16T08:32:27.713Z,53.43
2022-10-16T08:36:28.151Z,52.66
2022-10-16T08:40:32.148Z,52.01
2022-10-16T08:45:21.025Z,52.97
2022-10-16T08:49:21.810Z,51.82
2022-10-16T08:53:29.358Z,50.92
2022-10-16T08:57:32.474Z,51.19
2022-10-16T09:01:45.695Z,50.48
2022-10-16T09:06:04.664Z,50.17
2022-10-16T09:10:30.585Z,51.41
2022-10-16T09:14:58.866Z,51.98
2022-10-16T09:19:19.006Z,51.61
2022-10-16T09:23:22.078Z,50.38
2022-10-16T09:27:22.159Z,49.21
2022-10-16T09:31:25.217Z,48.78
2022-10-16T09:35:41.597Z,48.38
2022-10-16T09:39:49.056Z,46.69
2022-10-16T09:43:57.405Z,45.86
2022-10-16T09:47:57.970Z,44.36
2022-10-16T09:52:16.557Z,45.32
2022-10-16T09:56:27.049Z,42.29
2022-10-16T10:00:28.960Z,40.91
2022-10-16T10:04:29.523Z,39.00
2022-10-16T10:08:32.229Z,39.50
2022-10-16T10:12:37.534Z,41.10
2022-10-16T10:16:39.421Z,42.48
2022-10-16T10:20:42.149Z,42.66
2022-10-16T10:24:45.480Z,42.49
2022-10-16T10:29:03.895Z,44.59
2022-10-16T10:33:27.787Z,45.01
2022-10-16T10:37:55.629Z,45.13
2022-10-16T10:42:31.909Z,45.17
2022-10-16T10:46:43.294Z,45.74
2022-10-16T10:50:53.134Z,44.68
2022-10-16T10:55:00.543Z,45.13
2022-10-16T10:59:23.443Z,44.13
2022-10-16T11:03:58.944Z,42.52
2022-10-16T11:08:04.516Z,41.40
2022-10-16T11:12:15.852Z,40.44
2022-10-16T11:16:25.574Z,41.51
2022-10-16T11:20:31.329Z,40.37
2022-10-16T11:24:46.825Z,39.26
2022-10-16T11:28:53.132Z,37.59
2022-10-16T11:33:13.909Z,37.25
2022-10-16T11:37:21.539Z,37.33
2022-10-16T11:41:32.731Z,35.75
2022-10-16T11:45:44.909Z,37.08
2022-10-16T11:49:51.322Z,37.44
2022-10-16T11:54:02.605Z,37.22
2022-10-16T11:58:09.624Z,37.88
2022-10-16T12:02:35.352Z,36.81
2022-10-16T12:06:46.330Z,35.51
2022-10-16T12:10:50.707Z,35.55
2022-10-16T12:15:14.692Z,34.65
2022-10-16T12:19:18.169Z,34.42
2022-10-16T12:23:26.553Z,34.46
2022-10-16T12:27:33.500Z,34.27
2022-10-16T12:31:57.488Z,35.54
2022-10-16T12:36:00.106Z,34.62
2022-10-16T12:40:15.034Z,34.17
2022-10-16T12:44:27.466Z,30.48
2022-10-16T12:48:36.783Z,29.28
2022-10-16T12:52:48.235Z,28.46
2022-10-16T12:57:08.311Z,29.03
2022-10-16T13:01:28.467Z,28.77
2022-10-16T13:05:48.815Z,30.33
2022-10-16T13:10:06.440Z,31.22
2022-10-16T13:14:56.656Z,30.24
2022-10-16T13:19:15.228Z,29.65
2022-10-16T13:23:28.084Z,30.12
2022-10-16T13:27:43.586Z,30.14
2022-10-16T13:31:48.387Z,30.28
2022-10-16T13:35:55.223Z,31.37
2022-10-16T13:40:05.862Z,31.70
2022-10-16T13:44:06.325Z,31.75
2022-10-16T13:48:15.086Z,33.02
2022-10-16T13:52:23.354Z,33.79
2022-10-16T13:56:28.438Z,33.78
2022-10-16T14:00:33.284Z,34.66
2022-10-16T14:04:42.099Z,34.59
2022-10-16T14:08:50.158Z,34.35
2022-10-16T14:13:00.612Z,33.90
2022-10-16T14:17:00.901Z,33.15
2022-10-16T14:21:16.209Z,34.28
2022-10-16T14:25:31.424Z,33.25
2022-10-16T14:29:36.627Z,31.88
2022-10-16T14:33:38.184Z,31.22
2022-10-16T14:37:41.125Z,30.20
2022-10-16T14:41:50.605Z,30.18
2022-10-16T14:45:57.220Z,29.68
2022-10-16T14:49:59.945Z,31.04
2022-10-16T14:54:02.884Z,31.27
2022-10-16T14:58:03.046Z,31.35
2022-10-16T15:02:04.475Z,30.86
2022-10-16T15:06:04.521Z,30.06
2022-10-16T15:10:08.486Z,30.13
2022-10-16T15:14:08.982Z,30.69
2022-10-16T15:18:09.394Z,32.01
2022-10-16T15:22:09.509Z,33.82
2022-10-16T15:26:12.544Z,34.53
2022-10-16T15:30:14.474Z,35.85
2022-10-16T15:34:14.696Z,37.27
2022-10-16T15:38:16.722Z,38.49
2022-10-16T15:42:20.150Z,39.72
2022-10-16T15:46:23.991Z,41.18
2022-10-16T15:50:24.156Z,41.85
2022-10-16T15:54:24.703Z,42.74
2022-10-16T15:58:27.434Z,43.05
2022-10-16T16:02:28.197Z,43.89
2022-10-16T16:06:28.626Z,46.01
2022-10-16T16:10:28.997Z,45.34
2022-10-16T16:14:32.298Z,45.48
2022-10-16T16:18:32.556Z,46.20
2022-10-16T16:22:33.175Z,47.04
2022-10-16T16:26:37.167Z,48.86
2022-10-16T16:30:39.999Z,48.43
2022-10-16T16:34:40.200Z,49.14
2022-10-16T16:38:40.326Z,47.57
2022-10-16T16:42:40.451Z,47.55
2022-10-16T16:46:43.920Z,46.94
2022-10-16T16:50:44.092Z,46.75
2022-10-16T16:54:44.966Z,47.43
2022-10-16T16:58:45.261Z,48.00
2022-10-16T17:02:51.655Z,47.94
2022-10-16T17:06:51.974Z,48.61
2022-10-16T17:10:55.812Z,48.49
2022-10-16T17:14:55.919Z,48.92
2022-10-16T17:18:58.629Z,49.94
2022-10-16T17:22:58.824Z,51.17
2022-10-16T17:26:59.001Z,51.16
2022-10-16T17:30:59.231Z,51.80
2022-10-16T17:35:02.399Z,52.40
2022-10-16T17:39:04.574Z,52.56
2022-10-16T17:43:05.777Z,53.25
2022-10-16T17:47:05.957Z,52.74
2022-10-16T17:51:10.922Z,53.04
2022-10-16T17:55:12.493Z,53.19
2022-10-16T17:59:15.054Z,54.15
2022-10-16T18:03:15.159Z,54.34
2022-10-16T18:07:17.902Z,53.81
2022-10-16T18:11:18.269Z,54.30
2022-10-16T18:15:18.574Z,55.22
2022-10-16T18:19:19.211Z,56.07
2022-10-16T18:23:22.016Z,55.99
2022-10-16T18:27:22.667Z,56.13
2022-10-16T18:31:26.609Z,56.47
2022-10-16T18:35:27.290Z,55.22
2022-10-16T18:39:30.355Z,56.08
2022-10-16T18:43:30.675Z,56.87
2022-10-16T18:47:32.227Z,56.26
2022-10-16T18:51:34.787Z,56.41
2022-10-16T18:55:37.503Z,56.24
2022-10-16T18:59:39.936Z,56.09
2022-10-16T19:03:41.591Z,55.92
2022-10-16T19:07:43.499Z,56.47
2022-10-16T19:11:48.030Z,56.05
2022-10-16T19:15:57.977Z,56.60
2022-10-16T19:19:59.068Z,56.09
2022-10-16T19:24:05.223Z,56.39
2022-10-16T19:28:08.807Z,56.19
2022-10-16T19:32:09.423Z,55.78
2022-10-16T19:36:14.950Z,56.00
2022-10-16T19:40:15.513Z,56.55
2022-10-16T19:44:20.731Z,56.66
2022-10-16T19:52:43.154Z,56.87
2022-10-16T19:56:44.774Z,56.66
2022-10-16T20:00:47.489Z,57.02
2022-10-16T20:04:47.895Z,57.41
2022-10-16T20:08:51.757Z,57.53
2022-10-16T20:12:52.305Z,57.93
2022-10-16T20:16:55.907Z,58.39
2022-10-16T20:20:56.457Z,58.50
2022-10-16T20:24:56.944Z,59.35
2022-10-16T20:28:57.717Z,59.21
2022-10-16T20:33:00.649Z,59.52
2022-10-16T20:37:00.786Z,60.24
2022-10-16T20:41:08.166Z,59.49
2022-10-16T20:45:10.306Z,59.72
2022-10-16T20:49:28.308Z,59.85
2022-10-16T20:53:38.832Z,59.55
2022-10-16T20:57:39.996Z,59.71
2022-10-16T21:01:40.917Z,60.20
2022-10-16T21:05:46.283Z,60.79
2022-10-16T21:09:47.072Z,60.63
2022-10-16T21:13:47.895Z,60.87
2022-10-16T21:17:48.647Z,60.69
2022-10-16T21:21:57.458Z,61.60
2022-10-16T21:25:57.623Z,61.88
2022-10-16T21:29:57.725Z,61.37
2022-10-16T21:33:58.488Z,61.46
2022-10-16T21:38:01.717Z,60.61
2022-10-16T21:42:01.894Z,60.75
2022-10-16T21:46:02.004Z,61.83
2022-10-16T21:50:02.095Z,61.15
2022-10-16T21:54:06.221Z,61.53
2022-10-16T21:58:06.917Z,60.72
2022-10-16T22:02:08.117Z,61.03
2022-10-16T22:06:10.962Z,60.47
2022-10-16T22:10:14.006Z,60.91
2022-10-16T22:14:17.104Z,60.65
2022-10-16T22:18:17.204Z,61.19
2022-10-16T22:22:17.253Z,61.47
2022-10-16T22:26:19.959Z,61.44
2022-10-16T22:30:20.356Z,61.37
2022-10-16T22:34:20.689Z,62.09
2022-10-16T22:38:21.050Z,62.68
2022-10-16T22:42:23.734Z,61.78
2022-10-16T22:46:26.768Z,61.43
2022-10-16T22:50:27.014Z,61.46
2022-10-16T22:54:27.176Z,61.38
2022-10-16T22:58:29.969Z,61.39
2022-10-16T23:02:30.196Z,61.49
2022-10-16T23:06:30.843Z,61.72
2022-10-16T23:10:30.999Z,61.60
2022-10-16T23:14:33.732Z,61.60
2022-10-16T23:18:34.582Z,61.76
2022-10-16T23:22:34.690Z,61.86
2022-10-16T23:26:37.367Z,61.49
2022-10-16T23:30:42.105Z,62.27
2022-10-16T23:34:42.237Z,62.67
2022-10-16T23:38:43.342Z,63.00
2022-10-16T23:42:43.439Z,62.27
2022-10-16T23:46:46.179Z,62.27
2022-10-16T23:50:46.244Z,62.23
2022-10-16T23:54:46.351Z,62.47
2022-10-16T23:58:46.526Z,62.54
